Time;durP1;ratioP1;P1;durP2;ratioP2;P2;SDS_P1;SDS_P2;PMS_P1;PMS_P2;Temp;Humidity;BMP_temperature;BMP_pressure;BME280_temperature;BME280_humidity;BME280_pressure;Samples;Min_cycle;Max_cycle;Signal;HPM_P1;HPM_P2
2022/09/11 00:00:33;;;;;;;3.70;1.13;;;;;;;-145.69;100.00;71565.56;5055772;28;20210;-76
2022/09/11 00:02:59;;;;;;;5.68;1.38;;;;;;;-145.69;100.00;71565.56;5065731;28;20209;-75
2022/09/11 00:05:26;;;;;;;6.40;1.37;;;;;;;-145.69;100.00;71555.63;5076049;28;20203;-75
2022/09/11 00:07:56;;;;;;;5.55;1.27;;;;;;;-145.69;100.00;71561.59;5075973;28;20207;-76
2022/09/11 00:10:24;;;;;;;1.50;0.80;;;;;;;-145.69;100.00;71559.59;5075509;28;20199;-75
2022/09/11 00:12:50;;;;;;;2.10;0.90;;;;;;;-145.69;100.00;71547.66;5075556;28;20242;-76
2022/09/11 00:15:18;;;;;;;1.83;0.90;;;;;;;-145.69;100.00;71541.69;5075750;28;20607;-75
2022/09/11 00:17:44;;;;;;;3.93;1.10;;;;;;;-145.69;100.00;71535.72;5076190;28;20275;-75
2022/09/11 00:20:11;;;;;;;2.43;1.10;;;;;;;-145.69;100.00;71533.72;5075578;28;20206;-75
2022/09/11 00:22:38;;;;;;;3.25;0.90;;;;;;;-145.69;100.00;71533.72;5075512;28;20224;-75
2022/09/11 00:25:05;;;;;;;3.13;1.20;;;;;;;-145.69;100.00;71531.75;5075639;28;20199;-76
2022/09/11 00:27:32;;;;;;;2.83;1.30;;;;;;;-145.69;100.00;71527.75;5075306;28;20202;-75
2022/09/11 00:29:59;;;;;;;2.67;0.90;;;;;;;-145.69;100.00;71529.75;5075292;28;20300;-75
2022/09/11 00:32:27;;;;;;;3.35;1.08;;;;;;;-145.69;100.00;71537.72;5075662;28;20562;-75
2022/09/11 00:34:54;;;;;;;2.88;1.23;;;;;;;-145.69;100.00;71543.69;5075784;28;20298;-75
2022/09/11 00:37:20;;;;;;;2.78;0.90;;;;;;;-145.69;100.00;71537.72;5075194;28;20285;-75
2022/09/11 00:39:48;;;;;;;4.40;1.10;;;;;;;-145.69;100.00;71525.78;5075337;28;20265;-75
2022/09/11 00:42:14;;;;;;;1.88;1.00;;;;;;;-145.69;100.00;71525.78;5075156;28;20748;-75
2022/09/11 00:44:59;;;;;;;3.17;1.00;;;;;;;-145.69;100.00;71521.78;5075219;28;20657;-74
2022/09/11 00:47:29;;;;;;;3.73;1.23;;;;;;;-145.69;100.00;71521.78;5074549;28;20712;-74
2022/09/11 00:50:06;;;;;;;5.68;0.95;;;;;;;-145.69;100.00;71509.84;5075160;28;20294;-74
2022/09/11 00:52:35;;;;;;;3.75;1.10;;;;;;;-145.69;100.00;71513.81;5075175;28;20194;-74
2022/09/11 00:55:06;;;;;;;5.45;1.20;;;;;;;-145.69;100.00;71521.78;5074898;28;20256;-74
2022/09/11 00:57:38;;;;;;;4.40;1.17;;;;;;;-145.69;100.00;71517.81;5075034;28;20600;-75
2022/09/11 01:00:07;;;;;;;3.40;1.08;;;;;;;-145.69;100.00;71507.84;5074086;28;20252;-75
2022/09/11 01:02:38;;;;;;;5.25;1.30;;;;;;;-145.69;100.00;71507.84;5074822;28;20191;-75
2022/09/11 01:05:06;;;;;;;4.25;1.00;;;;;;;-145.69;100.00;71501.88;5074964;28;20206;-75
2022/09/11 01:07:35;;;;;;;7.05;1.00;;;;;;;-145.69;100.00;71501.88;5074160;28;20245;-75
2022/09/11 01:10:02;;;;;;;2.08;1.10;;;;;;;-145.69;100.00;71491.94;5075137;28;20230;-75
2022/09/11 01:12:48;;;;;;;2.75;1.20;;;;;;;-145.69;100.00;71505.88;5074592;28;20199;-75
2022/09/11 01:15:24;;;;;;;2.13;0.90;;;;;;;-145.69;100.00;71497.91;5073865;28;20202;-75
2022/09/11 01:18:01;;;;;;;4.45;1.00;;;;;;;-145.69;100.00;71489.94;5056553;28;20191;-75
2022/09/11 01:20:42;;;;;;;2.05;0.82;;;;;;;-145.69;100.00;71495.91;5054761;28;20574;-74
2022/09/11 01:23:36;;;;;;;7.13;1.55;;;;;;;-145.69;100.00;71495.91;5054605;28;20211;-75
2022/09/11 01:26:23;;;;;;;3.70;0.90;;;;;;;-145.69;100.00;71503.88;5053558;28;20637;-75
2022/09/11 01:28:59;;;;;;;3.85;1.20;;;;;;;-145.69;100.00;71503.88;5054384;28;20227;-74
2022/09/11 01:31:30;;;;;;;2.97;1.10;;;;;;;-145.69;100.00;71505.88;5054507;28;20203;-75
2022/09/11 01:33:59;;;;;;;3.90;1.05;;;;;;;-145.69;100.00;71507.84;5054348;28;20286;-75
2022/09/11 01:36:30;;;;;;;1.17;1.03;;;;;;;-145.69;100.00;71497.91;5054242;28;20199;-74
2022/09/11 01:39:01;;;;;;;4.78;1.00;;;;;;;-145.69;100.00;71493.94;5054214;28;20207;-75
2022/09/11 01:41:32;;;;;;;2.72;0.90;;;;;;;-145.69;100.00;71503.88;5065969;28;20281;-74
2022/09/11 01:44:05;;;;;;;4.90;1.00;;;;;;;-145.69;100.00;71499.91;5074047;28;20206;-74
2022/09/11 01:46:36;;;;;;;4.22;1.10;;;;;;;-145.69;100.00;71503.88;5073848;28;20217;-75
2022/09/11 01:49:07;;;;;;;2.45;1.20;;;;;;;-145.69;100.00;71503.88;5073809;28;20234;-75
2022/09/11 01:51:35;;;;;;;3.67;1.10;;;;;;;-145.69;100.00;71505.88;5074115;28;20254;-74
2022/09/11 01:54:07;;;;;;;2.70;0.95;;;;;;;-145.69;100.00;71509.84;5073741;28;20221;-74
2022/09/11 01:56:37;;;;;;;2.40;1.00;;;;;;;-145.69;100.00;71501.88;5073931;28;20233;-75
2022/09/11 01:59:10;;;;;;;2.05;1.10;;;;;;;-145.69;100.00;71505.88;5073157;28;20670;-75
2022/09/11 02:01:41;;;;;;;11.43;1.83;;;;;;;-145.69;100.00;71501.88;5073574;28;20206;-75
2022/09/11 02:04:12;;;;;;;1.52;1.00;;;;;;;-145.69;100.00;71501.88;5073789;28;20195;-76
2022/09/11 02:06:44;;;;;;;5.13;1.10;;;;;;;-145.69;100.00;71501.88;5073806;28;20203;-74
2022/09/11 02:09:16;;;;;;;3.03;1.13;;;;;;;-145.69;100.00;71505.88;5073638;28;20314;-75
2022/09/11 02:11:45;;;;;;;2.42;1.15;;;;;;;-145.69;100.00;71499.91;5073481;28;20665;-75
2022/09/11 02:14:19;;;;;;;2.22;1.00;;;;;;;-145.69;100.00;71501.88;5072657;28;20440;-75
2022/09/11 02:16:50;;;;;;;5.50;1.20;;;;;;;-145.69;100.00;71503.88;5073159;28;20301;-76
2022/09/11 02:19:19;;;;;;;3.05;1.17;;;;;;;-145.69;100.00;71501.88;5073186;28;20209;-76
2022/09/11 02:21:47;;;;;;;3.35;1.40;;;;;;;-145.69;100.00;71507.84;5073297;28;20772;-75
2022/09/11 02:24:18;;;;;;;4.20;1.27;;;;;;;-145.69;100.00;71491.94;5073325;28;20198;-75
2022/09/11 02:26:49;;;;;;;2.53;1.50;;;;;;;-145.69;100.00;71493.94;5073254;28;20323;-75
2022/09/11 02:29:16;;;;;;;2.95;1.63;;;;;;;-145.69;100.00;71499.91;5073475;28;20272;-76
2022/09/11 02:31:43;;;;;;;7.20;1.20;;;;;;;-145.69;100.00;71487.97;5073306;28;20600;-75
2022/09/11 02:34:11;;;;;;;2.97;1.27;;;;;;;-145.69;100.00;71485.97;5073301;28;20217;-75
2022/09/11 02:36:55;;;;;;;2.53;1.10;;;;;;;-145.69;100.00;71485.97;5073157;28;20203;-76
2022/09/11 02:39:39;;;;;;;4.53;1.30;;;;;;;-145.69;100.00;71493.94;5073377;28;20279;-75
2022/09/11 02:42:18;;;;;;;2.33;0.88;;;;;;;-145.69;100.00;71493.94;5073277;28;20198;-76
2022/09/11 02:44:53;;;;;;;2.55;1.10;;;;;;;-145.69;100.00;71491.94;5072786;28;20657;-76
2022/09/11 02:47:31;;;;;;;3.40;1.40;;;;;;;-145.69;100.00;71489.94;5073141;28;20206;-76
2022/09/11 02:50:08;;;;;;;3.70;1.25;;;;;;;-145.69;100.00;71489.94;5072951;28;20233;-76
2022/09/11 02:52:44;;;;;;;8.80;1.45;;;;;;;-145.69;100.00;71487.97;5073039;28;20206;-75
2022/09/11 02:55:22;;;;;;;1.48;1.15;;;;;;;-145.69;100.00;71489.94;5072696;28;20195;-75
2022/09/11 02:57:55;;;;;;;4.70;1.35;;;;;;;-145.69;100.00;71487.97;5072750;28;20206;-74
2022/09/11 03:00:23;;;;;;;4.22;1.20;;;;;;;-145.69;100.00;71476.03;5073166;28;20253;-77
2022/09/11 03:02:49;;;;;;;2.58;1.25;;;;;;;-145.69;100.00;71478.00;5072534;28;20206;-75
2022/09/11 03:05:17;;;;;;;3.67;1.20;;;;;;;-145.69;100.00;71478.00;5072941;28;20202;-76
2022/09/11 03:07:44;;;;;;;1.58;1.05;;;;;;;-145.69;100.00;71483.97;5072766;28;20269;-76
2022/09/11 03:10:11;;;;;;;4.28;1.85;;;;;;;-145.69;100.00;71487.97;5072561;28;20226;-76
2022/09/11 03:12:38;;;;;;;4.38;1.40;;;;;;;-145.69;100.00;71501.88;5062241;28;20572;-76
2022/09/11 03:15:06;;;;;;;3.10;1.25;;;;;;;-145.69;100.00;71521.78;5052898;28;20200;-75
2022/09/11 03:17:34;;;;;;;3.50;1.17;;;;;;;-145.69;100.00;71533.72;5052741;28;20672;-75
2022/09/11 03:20:00;;;;;;;1.80;1.10;;;;;;;-145.69;100.00;71539.69;5052398;28;20249;-75
2022/09/11 03:22:27;;;;;;;8.20;1.40;;;;;;;-145.69;100.00;71539.69;5052736;28;20204;-75
2022/09/11 03:24:55;;;;;;;2.70;1.25;;;;;;;-145.69;100.00;71549.66;5056512;28;20203;-75
2022/09/11 03:27:22;;;;;;;2.70;1.30;;;;;;;-145.69;100.00;71547.66;5056764;28;20203;-75
2022/09/11 03:29:49;;;;;;;3.20;1.30;;;;;;;-145.69;100.00;71545.66;5056355;28;20234;-75
2022/09/11 03:32:16;;;;;;;4.57;1.30;;;;;;;-145.69;100.00;71547.66;5056043;28;20835;-75
2022/09/11 03:34:43;;;;;;;2.38;1.40;;;;;;;-145.69;100.00;71541.69;5056748;28;20294;-75
2022/09/11 03:37:10;;;;;;;3.00;1.52;;;;;;;-145.69;100.00;71541.69;5056539;28;20654;-76
2022/09/11 03:39:36;;;;;;;3.77;1.40;;;;;;;-145.69;100.00;71545.66;5056401;28;20716;-76
2022/09/11 03:42:03;;;;;;;7.10;1.60;;;;;;;-145.69;100.00;71533.72;5056659;28;20261;-76
2022/09/11 03:44:29;;;;;;;2.53;1.20;;;;;;;-145.69;100.00;71531.75;5056284;28;20208;-76
2022/09/11 03:46:56;;;;;;;4.13;1.27;;;;;;;-145.69;100.00;71527.75;5056457;28;20211;-76
2022/09/11 03:49:22;;;;;;;2.95;1.05;;;;;;;-145.69;100.00;71529.75;5056245;28;20227;-76
2022/09/11 03:51:50;;;;;;;2.00;1.07;;;;;;;-145.69;100.00;71523.78;5056046;28;20281;-76
2022/09/11 03:54:16;;;;;;;4.97;1.37;;;;;;;-145.69;100.00;71529.75;5056161;28;20213;-76
2022/09/11 03:56:43;;;;;;;3.00;1.10;;;;;;;-145.69;100.00;71529.75;5055535;28;20535;-76
2022/09/11 03:59:09;;;;;;;2.27;1.20;;;;;;;-145.69;100.00;71521.78;5056330;28;20210;-75
2022/09/11 04:01:36;;;;;;;5.25;1.45;;;;;;;-145.69;100.00;71529.75;5055876;28;20654;-76
2022/09/11 04:04:03;;;;;;;4.17;1.37;;;;;;;-145.69;100.00;71537.72;5074774;28;20198;-76
2022/09/11 04:06:31;;;;;;;3.33;1.50;;;;;;;-145.69;100.00;71539.69;5076001;28;20217;-76
2022/09/11 04:08:59;;;;;;;7.30;1.40;;;;;;;-145.69;100.00;71551.63;5075849;28;20207;-76
2022/09/11 04:11:26;;;;;;;6.72;1.50;;;;;;;-145.69;100.00;71541.69;5075715;28;20574;-75
2022/09/11 04:13:53;;;;;;;2.43;1.40;;;;;;;-145.69;100.00;71549.66;5075926;28;20210;-75
2022/09/11 04:16:20;;;;;;;4.13;1.40;;;;;;;-145.69;100.00;71557.59;5076172;28;20226;-76
2022/09/11 04:18:48;;;;;;;6.68;1.75;;;;;;;-145.69;100.00;71569.53;5075729;28;20202;-75
2022/09/11 04:21:17;;;;;;;4.23;1.33;;;;;;;-145.69;100.00;71571.53;5075576;28;20195;-76
2022/09/11 04:23:44;;;;;;;2.37;1.30;;;;;;;-145.69;100.00;71571.53;5075677;28;20213;-75
2022/09/11 04:26:17;;;;;;;4.30;1.40;;;;;;;-145.69;100.00;71579.50;5075939;28;20260;-76
2022/09/11 04:28:44;;;;;;;2.83;1.38;;;;;;;-145.69;100.00;71575.50;5075796;28;20217;-75
2022/09/11 04:31:12;;;;;;;3.30;1.60;;;;;;;-145.69;100.00;71581.50;5075513;28;20226;-75
2022/09/11 04:33:38;;;;;;;4.70;1.55;;;;;;;-145.69;100.00;71577.50;5075410;28;20199;-75
2022/09/11 04:36:06;;;;;;;4.10;1.80;;;;;;;-145.69;100.00;71577.50;5074493;28;20294;-75
2022/09/11 04:38:33;;;;;;;4.32;1.80;;;;;;;-145.69;100.00;71581.50;5075614;28;20227;-75
2022/09/11 04:41:01;;;;;;;2.30;1.60;;;;;;;-145.69;100.00;71585.47;5075378;28;20222;-75
2022/09/11 04:43:30;;;;;;;2.60;1.80;;;;;;;-145.69;100.00;71581.50;5075261;28;20289;-75
2022/09/11 04:46:00;;;;;;;2.70;1.55;;;;;;;-145.69;100.00;71585.47;5075460;28;20226;-75
2022/09/11 04:48:26;;;;;;;5.50;1.70;;;;;;;-145.69;100.00;71581.50;5075164;28;20684;-75
2022/09/11 04:50:59;;;;;;;2.53;1.40;;;;;;;-145.69;100.00;71585.47;5074438;28;20296;-75
2022/09/11 04:53:25;;;;;;;2.15;1.55;;;;;;;-145.69;100.00;71579.50;5075320;28;20202;-75
2022/09/11 04:55:52;;;;;;;2.33;1.50;;;;;;;-145.69;100.00;71585.47;5075116;28;20289;-75
2022/09/11 04:58:19;;;;;;;5.72;1.83;;;;;;;-145.69;100.00;71587.47;5075474;28;20257;-75
2022/09/11 05:00:46;;;;;;;3.42;1.45;;;;;;;-145.69;100.00;71587.47;5074808;28;20199;-76
2022/09/11 05:03:14;;;;;;;2.50;1.50;;;;;;;-145.69;100.00;71585.47;5075108;28;20190;-76
2022/09/11 05:05:42;;;;;;;8.68;1.70;;;;;;;-145.69;100.00;71585.47;5064522;28;20196;-75
2022/09/11 05:08:10;;;;;;;4.00;1.80;;;;;;;-145.69;100.00;71589.44;5054682;28;20199;-77
2022/09/11 05:10:37;;;;;;;5.78;1.65;;;;;;;-145.69;100.00;71597.41;5054591;28;20219;-77
2022/09/11 05:13:03;;;;;;;4.43;1.55;;;;;;;-145.69;100.00;71601.38;5054759;28;20203;-77
2022/09/11 05:15:30;;;;;;;5.68;1.83;;;;;;;-145.69;100.00;71597.41;5054806;28;20196;-76
2022/09/11 05:17:58;;;;;;;4.40;1.63;;;;;;;-145.69;100.00;71593.44;5054964;28;20245;-76
2022/09/11 05:20:24;;;;;;;5.35;1.50;;;;;;;-145.69;100.00;71607.34;5054757;28;20204;-75
2022/09/11 05:22:52;;;;;;;5.93;1.95;;;;;;;-145.69;100.00;71613.31;5054943;28;20211;-76
2022/09/11 05:25:18;;;;;;;5.33;1.60;;;;;;;-145.69;100.00;71617.31;5054452;28;20570;-75
2022/09/11 05:27:45;;;;;;;3.72;1.90;;;;;;;-145.69;100.00;71631.25;5054381;28;20196;-76
2022/09/11 05:30:12;;;;;;;6.25;2.00;;;;;;;-145.69;100.00;71635.22;5054236;28;20223;-75
2022/09/11 05:32:38;;;;;;;4.03;1.70;;;;;;;-145.69;100.00;71637.19;5054589;28;20570;-75
2022/09/11 05:35:07;;;;;;;3.63;1.80;;;;;;;-145.69;100.00;71627.25;5054405;28;20214;-75
2022/09/11 05:37:34;;;;;;;7.03;1.97;;;;;;;-145.69;100.00;71625.25;5054081;28;20199;-75
2022/09/11 05:40:00;;;;;;;4.75;1.50;;;;;;;-145.69;100.00;71629.25;5054288;28;20222;-75
2022/09/11 05:42:27;;;;;;;5.97;2.03;;;;;;;-145.69;100.00;71625.25;5054125;28;20203;-75
2022/09/11 05:44:54;;;;;;;6.50;2.10;;;;;;;-145.69;100.00;71619.28;5053763;28;20203;-75
2022/09/11 05:47:20;;;;;;;5.88;2.00;;;;;;;-145.69;100.00;71623.28;5053623;28;20646;-75
2022/09/11 05:49:49;;;;;;;7.25;2.22;;;;;;;-145.69;100.00;71633.22;5054061;28;20203;-76
2022/09/11 05:52:17;;;;;;;7.07;2.00;;;;;;;-145.69;100.00;71633.22;5054061;28;20286;-75
2022/09/11 05:54:43;;;;;;;5.63;2.28;;;;;;;-145.69;100.00;71633.22;5053731;28;20199;-75
2022/09/11 05:57:10;;;;;;;9.05;2.30;;;;;;;-145.69;100.00;71635.22;5053845;28;20207;-76
2022/09/11 05:59:36;;;;;;;9.82;2.70;;;;;;;-145.69;100.00;71635.22;5054049;28;20602;-75
2022/09/11 06:02:03;;;;;;;4.40;1.92;;;;;;;-145.69;100.00;71643.19;5056063;28;20207;-75
2022/09/11 06:04:29;;;;;;;4.07;2.00;;;;;;;-145.69;100.00;71645.16;5073682;28;20669;-75
2022/09/11 06:06:55;;;;;;;6.88;2.08;;;;;;;-145.69;100.00;71647.16;5073817;28;20205;-75
2022/09/11 06:09:23;;;;;;;5.95;2.40;;;;;;;-145.69;100.00;71645.16;5073558;28;20202;-75
2022/09/11 06:11:50;;;;;;;5.93;2.40;;;;;;;-145.69;100.00;71649.16;5073868;28;20230;-76
2022/09/11 06:14:16;;;;;;;2.78;1.90;;;;;;;-145.69;100.00;71647.16;5073618;28;20248;-75
2022/09/11 06:16:42;;;;;;;4.93;1.90;;;;;;;-145.69;100.00;71661.09;5073590;28;20202;-75
2022/09/11 06:19:09;;;;;;;5.53;1.85;;;;;;;-145.69;100.00;71649.16;5073799;28;20205;-75
2022/09/11 06:21:35;;;;;;;8.88;2.00;;;;;;;-145.69;100.00;71659.09;5073086;28;20199;-76
2022/09/11 06:24:02;;;;;;;5.77;2.47;;;;;;;-145.69;100.00;71665.06;5073350;28;20206;-76
2022/09/11 06:26:30;;;;;;;5.40;2.77;;;;;;;-145.69;100.00;71665.06;5073542;28;20195;-76
2022/09/11 06:28:57;;;;;;;5.03;2.28;;;;;;;-145.69;100.00;71677.00;5073099;28;20260;-76
2022/09/11 06:31:25;;;;;;;5.00;2.30;;;;;;;-145.69;100.00;71682.97;5073006;28;20257;-75
2022/09/11 06:33:52;;;;;;;4.13;2.40;;;;;;;-145.69;100.00;71690.94;5073342;28;20234;-76
2022/09/11 06:36:20;;;;;;;6.20;2.53;;;;;;;-145.69;100.00;71692.94;5073084;28;20264;-75
2022/09/11 06:38:51;;;;;;;10.80;3.27;;;;;;;-145.69;100.00;71682.97;5072701;28;20203;-76
2022/09/11 06:41:19;;;;;;;10.30;2.73;;;;;;;-145.69;100.00;71680.97;5073305;28;20202;-76
2022/09/11 06:43:48;;;;;;;6.10;2.63;;;;;;;-145.69;100.00;71677.00;5073220;28;20199;-76
2022/09/11 06:46:18;;;;;;;7.78;2.80;;;;;;;-145.69;100.00;71665.06;5073079;28;20233;-75
2022/09/11 06:48:46;;;;;;;6.57;3.10;;;;;;;-145.69;100.00;71657.09;5072740;28;20294;-76
2022/09/11 06:51:15;;;;;;;7.80;2.73;;;;;;;-145.69;100.00;71653.13;5072807;28;20605;-76
2022/09/11 06:53:42;;;;;;;4.15;2.50;;;;;;;-145.69;100.00;71653.13;5073150;28;20248;-76
2022/09/11 06:56:12;;;;;;;5.93;2.90;;;;;;;-145.69;100.00;71641.19;5067696;28;20261;-76
2022/09/11 06:58:40;;;;;;;7.22;2.35;;;;;;;-145.69;100.00;71637.19;5052186;28;20674;-76
2022/09/11 07:01:10;;;;;;;12.73;2.97;;;;;;;-145.69;100.00;71659.09;5052577;28;20317;-76
2022/09/11 07:03:37;;;;;;;3.80;2.40;;;;;;;-145.69;100.00;71649.16;5067767;28;20241;-76
2022/09/11 07:06:05;;;;;;;5.72;2.50;;;;;;;-145.69;100.00;71651.13;5072989;28;20228;-76
2022/09/11 07:08:32;;;;;;;6.03;2.90;;;;;;;-145.69;100.00;71665.06;5072884;28;20249;-76
2022/09/11 07:11:03;;;;;;;9.60;3.50;;;;;;;-145.69;100.00;71671.03;5072858;28;20260;-75
2022/09/11 07:13:31;;;;;;;8.57;3.60;;;;;;;-145.69;100.00;71663.06;5072508;28;20203;-76
2022/09/11 07:16:01;;;;;;;7.68;3.30;;;;;;;-145.69;100.00;71657.09;5072671;28;20553;-76
2022/09/11 07:18:34;;;;;;;6.85;3.03;;;;;;;-145.69;100.00;71639.19;5073024;28;20649;-76
2022/09/11 07:21:05;;;;;;;7.03;3.60;;;;;;;-145.69;100.00;71635.22;5072789;28;20699;-77
2022/09/11 07:23:31;;;;;;;5.15;2.88;;;;;;;-145.69;100.00;71655.13;5072825;28;20241;-76
2022/09/11 07:26:02;;;;;;;5.80;2.60;;;;;;;-145.69;100.00;71649.16;5072347;28;20226;-77
2022/09/11 07:28:28;;;;;;;6.93;3.27;;;;;;;-145.69;100.00;71651.13;5072758;28;20236;-76
2022/09/11 07:31:03;;;;;;;7.30;4.30;;;;;;;-145.69;100.00;71661.09;5072490;28;20223;-76
2022/09/11 07:33:37;;;;;;;7.20;3.40;;;;;;;-145.69;100.00;71653.13;5071828;28;20230;-76
2022/09/11 07:36:10;;;;;;;6.63;3.70;;;;;;;-145.69;100.00;71649.16;5072709;28;20199;-76
2022/09/11 07:38:37;;;;;;;9.57;4.05;;;;;;;-145.69;100.00;71633.22;5072478;28;20703;-76
2022/09/11 07:41:04;;;;;;;6.85;3.50;;;;;;;-145.69;100.00;71647.16;5071906;28;20285;-76
2022/09/11 07:43:31;;;;;;;6.30;3.40;;;;;;;-145.69;100.00;71633.22;5072819;28;20202;-75
2022/09/11 07:45:57;;;;;;;6.72;3.00;;;;;;;-145.69;100.00;71637.19;5072644;28;20209;-75
2022/09/11 07:48:23;;;;;;;4.72;3.15;;;;;;;-145.69;100.00;71641.19;5072582;28;20253;-75
2022/09/11 07:50:57;;;;;;;6.68;3.50;;;;;;;-145.69;100.00;71641.19;5071821;28;20492;-75
2022/09/11 07:53:25;;;;;;;5.00;3.47;;;;;;;-145.69;100.00;71641.19;5052207;28;20203;-76
2022/09/11 07:55:52;;;;;;;9.73;3.38;;;;;;;-145.69;100.00;71645.16;5052200;28;20694;-75
2022/09/11 07:58:18;;;;;;;5.88;3.33;;;;;;;-145.69;100.00;71633.22;5052351;28;20593;-75
2022/09/11 08:00:45;;;;;;;9.00;4.20;;;;;;;-145.69;100.00;71625.25;5051796;28;20447;-76
2022/09/11 08:03:11;;;;;;;5.10;3.22;;;;;;;-145.69;100.00;71603.38;5063806;28;20673;-75
2022/09/11 08:05:38;;;;;;;6.85;3.15;;;;;;;-145.69;100.00;71611.34;5072150;28;20199;-75
2022/09/11 08:08:04;;;;;;;7.10;3.17;;;;;;;-145.69;100.00;71589.44;5071924;28;20206;-75
2022/09/11 08:10:32;;;;;;;8.30;3.28;;;;;;;-145.69;100.00;71577.50;5074913;28;20195;-75
2022/09/11 08:13:04;;;;;;;6.05;3.47;;;;;;;-145.69;100.00;71545.66;5076110;28;20202;-75
2022/09/11 08:15:30;;;;;;;4.47;3.17;;;;;;;-145.69;100.00;71525.78;5076073;28;20301;-75
2022/09/11 08:17:57;;;;;;;6.90;3.22;;;;;;;-145.69;100.00;71513.81;5076884;28;20195;-75
2022/09/11 08:20:23;;;;;;;6.00;2.45;;;;;;;-145.69;100.00;71472.03;5076203;28;20206;-75
2022/09/11 08:22:49;;;;;;;7.63;2.60;;;;;;;-145.69;100.00;71446.16;5075789;28;20207;-75
2022/09/11 08:25:17;;;;;;;4.45;2.60;;;;;;;-145.69;100.00;71404.38;5075538;28;20210;-75
2022/09/11 08:27:44;;;;;;;5.68;2.45;;;;;;;-145.69;100.00;71448.16;5075437;28;20213;-75
2022/09/11 08:30:12;;;;;;;4.10;2.10;;;;;;;-145.69;100.00;71432.25;5075757;28;20202;-75
2022/09/11 08:32:39;;;;;;;6.63;2.70;;;;;;;-145.69;100.00;71480.00;5075517;28;20266;-75
2022/09/11 08:35:06;;;;;;;4.18;2.60;;;;;;;-145.69;100.00;71482.00;5075376;28;20199;-75
2022/09/11 08:37:32;;;;;;;6.65;3.05;;;;;;;-145.69;100.00;71487.97;5075190;28;20211;-75
2022/09/11 08:40:00;;;;;;;5.85;2.90;;;;;;;-145.69;100.00;71468.06;5075456;28;20607;-74
2022/09/11 08:42:27;;;;;;;7.88;2.90;;;;;;;-145.69;100.00;71474.03;5075547;28;20237;-77
2022/09/11 08:44:59;;;;;;;4.40;2.88;;;;;;;-145.69;100.00;71476.03;5074746;28;20293;-76
2022/09/11 08:47:28;;;;;;;5.20;2.63;;;;;;;-145.69;100.00;71450.16;5075412;28;20199;-75
2022/09/11 08:49:59;;;;;;;5.25;3.03;;;;;;;-145.69;100.00;71428.25;5074992;28;20199;-75
2022/09/11 08:52:25;;;;;;;8.93;4.10;;;;;;;-145.69;100.00;71398.41;5075101;28;20268;-75
2022/09/11 08:54:56;;;;;;;8.90;3.95;;;;;;;-145.69;100.00;71428.25;5070578;28;20211;-75
2022/09/11 08:57:32;;;;;;;8.73;4.35;;;;;;;-145.69;100.00;71446.16;5054845;28;20199;-75
2022/09/11 09:00:08;;;;;;;10.63;4.47;;;;;;;-145.69;100.00;71474.03;5055029;28;20661;-75
2022/09/11 09:03:02;;;;;;;10.57;5.13;;;;;;;-145.69;100.00;71483.97;5061415;28;20222;-75
2022/09/11 09:05:38;;;;;;;11.98;5.63;;;;;;;-145.69;100.00;71480.00;5074967;28;20202;-75
2022/09/11 09:08:18;;;;;;;8.13;3.63;;;;;;;-145.69;100.00;71470.06;5074998;28;20284;-76
2022/09/11 09:10:51;;;;;;;3.95;2.60;;;;;;;-145.69;100.00;71470.06;5074618;28;20195;-75
2022/09/11 09:13:45;;;;;;;7.53;2.83;;;;;;;-145.69;100.00;71454.13;5074756;28;20550;-76
2022/09/11 09:16:24;;;;;;;8.85;2.55;;;;;;;-145.69;100.00;71402.41;5074788;28;20685;-75
2022/09/11 09:18:57;;;;;;;5.43;2.47;;;;;;;-145.69;100.00;71372.53;5073789;28;20461;-75
2022/09/11 09:21:30;;;;;;;2.65;1.90;;;;;;;-145.69;100.00;71354.63;5074043;28;20206;-77
2022/09/11 09:24:01;;;;;;;4.18;1.80;;;;;;;-145.69;100.00;71263.09;5074517;28;20667;-76
2022/09/11 09:26:30;;;;;;;1.92;1.23;;;;;;;-145.69;100.00;71265.09;5074711;28;20320;-76
2022/09/11 09:29:02;;;;;;;2.35;1.33;;;;;;;-145.69;100.00;71283.00;5074220;28;20207;-76
2022/09/11 09:31:32;;;;;;;2.00;1.42;;;;;;;-145.69;100.00;71340.72;5074087;28;20226;-76
2022/09/11 09:34:03;;;;;;;3.15;1.40;;;;;;;-145.69;100.00;71366.56;5074058;28;20194;-75
2022/09/11 09:36:33;;;;;;;1.70;1.40;;;;;;;-145.69;100.00;71350.66;5074190;28;20206;-77
2022/09/11 09:38:59;;;;;;;2.15;1.33;;;;;;;-145.69;100.00;71306.88;5074432;28;20203;-77
2022/09/11 09:41:42;;;;;;;1.30;1.10;;;;;;;-145.69;100.00;71316.84;5074152;28;20538;-76
2022/09/11 09:44:17;;;;;;;2.67;1.50;;;;;;;-145.69;100.00;71296.94;5074140;28;20203;-77
2022/09/11 09:46:47;;;;;;;3.95;1.58;;;;;;;-145.69;100.00;71296.94;5074325;28;20607;-76
2022/09/11 09:49:18;;;;;;;2.60;1.45;;;;;;;-145.69;100.00;71360.59;5073786;28;20447;-76
2022/09/11 09:51:45;;;;;;;1.40;1.20;;;;;;;-145.69;100.00;71354.63;5073905;28;20234;-76
2022/09/11 09:54:16;;;;;;;1.70;1.13;;;;;;;-145.69;100.00;71342.69;5073744;28;20214;-75
2022/09/11 09:56:48;;;;;;;2.97;1.52;;;;;;;-145.69;100.00;71342.69;5073943;28;20203;-76
2022/09/11 09:59:18;;;;;;;2.50;1.67;;;;;;;-145.69;100.00;71292.94;5074146;28;20615;-76
2022/09/11 10:01:48;;;;;;;1.92;1.65;;;;;;;-145.69;100.00;71207.38;5073946;28;20215;-76
2022/09/11 10:04:21;;;;;;;2.83;1.40;;;;;;;-145.69;100.00;71183.50;5053623;28;20207;-77
2022/09/11 10:06:50;;;;;;;3.10;1.30;;;;;;;-145.69;100.00;71179.53;5053626;28;20242;-76
2022/09/11 10:09:22;;;;;;;3.35;1.63;;;;;;;-145.69;100.00;71149.69;5053591;28;20222;-76
2022/09/11 10:11:54;;;;;;;5.35;2.10;;;;;;;-145.69;100.00;71139.75;5053735;28;20230;-76
2022/09/11 10:14:22;;;;;;;4.60;1.60;;;;;;;-145.69;100.00;71139.75;5053627;28;20749;-76
2022/09/11 10:16:52;;;;;;;1.55;1.35;;;;;;;-145.69;100.00;71173.56;5053388;28;20204;-75
2022/09/11 10:19:39;;;;;;;3.70;2.03;;;;;;;-145.69;100.00;71191.47;5054145;28;20234;-77
2022/09/11 10:22:23;;;;;;;2.35;1.65;;;;;;;-145.69;100.00;71175.56;5053247;28;20723;-78
2022/09/11 10:25:04;;;;;;;4.20;1.70;;;;;;;-145.69;100.00;71167.59;5053502;28;20199;-76
2022/09/11 10:27:37;;;;;;;3.20;1.55;;;;;;;-145.69;100.00;71203.41;5053450;28;20195;-78
2022/09/11 10:30:22;;;;;;;2.50;1.50;;;;;;;-145.69;100.00;71193.47;5053100;28;20217;-75
2022/09/11 10:32:51;;;;;;;2.10;1.58;;;;;;;-145.69;100.00;71181.53;5052343;28;20730;-77
2022/09/11 10:35:26;;;;;;;3.97;2.00;;;;;;;-145.69;100.00;71213.38;5052786;28;20298;-77
2022/09/11 10:38:16;;;;;;;5.68;2.05;;;;;;;-145.69;100.00;71227.28;5052852;28;20444;-74
2022/09/11 10:40:53;;;;;;;2.53;2.10;;;;;;;-145.69;100.00;71181.53;5058269;28;20187;-77
2022/09/11 10:43:24;;;;;;;2.53;1.92;;;;;;;-145.69;100.00;71151.69;5071529;28;20200;-77
2022/09/11 10:46:05;;;;;;;1.52;1.25;;;;;;;-145.69;100.00;71133.78;5068672;28;20225;-77
2022/09/11 10:48:33;;;;;;;1.42;1.33;;;;;;;-145.69;100.00;71050.22;5053072;28;20199;-77
2022/09/11 10:51:10;;;;;;;3.20;2.10;;;;;;;-145.69;99.95;71054.19;5053004;28;20223;-77
2022/09/11 10:53:50;;;;;;;1.90;1.52;;;;;;;-145.69;94.45;71111.88;5054239;28;20685;-77
2022/09/11 10:56:17;;;;;;;2.72;1.90;;;;;;;-145.69;100.00;71139.75;5070614;28;20561;-79
2022/09/11 10:58:51;;;;;;;2.10;1.35;;;;;;;-145.69;100.00;71183.50;5072785;28;20290;-77
2022/09/11 11:01:17;;;;;;;2.83;1.65;;;;;;;-145.69;100.00;71187.50;5072672;28;20704;-78
2022/09/11 11:03:45;;;;;;;3.15;1.70;;;;;;;-145.69;100.00;71139.75;5065306;28;20563;-77
2022/09/11 11:06:27;;;;;;;1.73;1.30;;;;;;;-145.69;100.00;71119.84;5055469;28;20329;-76
2022/09/11 11:09:10;;;;;;;4.65;1.50;;;;;;;-145.69;100.00;71046.22;5060102;28;20244;-77
2022/09/11 11:11:54;;;;;;;2.95;1.40;;;;;;;-145.69;94.52;71032.28;5063428;28;20206;-79
2022/09/11 11:15:04;;;;;;;1.50;1.40;;;;;;;-145.69;96.61;71040.25;5060077;28;20223;-78
2022/09/11 11:17:40;;;;;;;2.92;2.00;;;;;;;-145.69;98.75;71090.00;5058403;28;20199;-78
2022/09/11 11:20:23;;;;;;;8.73;1.80;;;;;;;-145.69;100.00;71092.00;5064868;28;20221;-77
2022/09/11 11:23:19;;;;;;;2.03;1.30;;;;;;;-145.69;100.00;71117.84;5052966;28;20286;-76